KWVI/WVI METAR and TAF weather

Enter ICAO airport designator
Station Type Date Time Source
KWVI METAR 2021/09/19 13:21 UTC NOAA

KWVI 191321Z AUTO 00000KT 10SM SCT002 OVC010 14/14 A3009 RMK AO2 T01440144


Station Type Date Time Source
KWVI Decoded METAR 2021/09/19 13:21 UTC NOAA

WATSONVILLE MUNICIPAL AIRPORT , CA, United States (KWVI) 36-56N 121-47W 43M
Sep 19, 2021 - 09:21 AM EDT / 2021.09.19 1321 UTC
Wind: Calm:0
Visibility: 10 mile(s):0
Sky conditions: overcast
Temperature: 57.9 F (14.4 C)
Dew Point: 57.9 F (14.4 C)
Relative Humidity: 100%
Pressure (altimeter): 30.09 in. Hg (1018 hPa)
ob: KWVI 191321Z AUTO 00000KT 10SM SCT002 OVC010 14/14 A3009 RMK AO2 T01440144
cycle: 13

Station Type Date Time Source
KWVI TAF UTC NOAA

Error!

Example: see airport list